createdAt,value
2023-02-12T00:01:55.950Z,101510.91
2023-02-12T00:06:58.907Z,101526.66
2023-02-12T00:12:03.530Z,101524.06
2023-02-12T00:17:06.480Z,101522.13
2023-02-12T00:22:09.429Z,101524.41
2023-02-12T00:27:13.815Z,101528.72
2023-02-12T00:32:19.708Z,101523.22
2023-02-12T00:37:22.653Z,101528.94
2023-02-12T00:42:27.079Z,101528.78
2023-02-12T00:47:30.053Z,101540.97
2023-02-12T00:52:33.023Z,101535.72
2023-02-12T00:57:37.356Z,101532.19
2023-02-12T01:02:40.335Z,101527.66
2023-02-12T01:07:43.309Z,101537.28
2023-02-12T01:12:48.141Z,101528.59
2023-02-12T01:17:52.713Z,101540.94
2023-02-12T01:22:55.692Z,101540.00
2023-02-12T01:28:00.021Z,101546.22
2023-02-12T01:33:03.078Z,101543.41
2023-02-12T01:38:06.081Z,101535.53
2023-02-12T01:43:13.312Z,101537.34
2023-02-12T01:48:17.728Z,101554.72
2023-02-12T01:53:21.945Z,101545.06
2023-02-12T01:58:28.272Z,101545.94
2023-02-12T02:03:31.413Z,101544.97
2023-02-12T02:08:35.271Z,101553.75
2023-02-12T02:14:11.577Z,101545.06
2023-02-12T02:19:20.982Z,101552.94
2023-02-12T02:24:46.160Z,101556.53
2023-02-12T02:30:16.064Z,101560.03
2023-02-12T02:35:26.955Z,101560.00
2023-02-12T02:40:34.569Z,101565.41
2023-02-12T02:45:40.320Z,101553.94
2023-02-12T02:50:47.625Z,101556.69
2023-02-12T02:55:53.757Z,101554.13
2023-02-12T03:00:59.730Z,101553.34
2023-02-12T03:06:05.615Z,101550.72
2023-02-12T03:11:23.519Z,101547.28
2023-02-12T03:16:27.800Z,101554.34
2023-02-12T03:21:35.247Z,101556.09
2023-02-12T03:26:41.868Z,101550.06
2023-02-12T03:31:52.585Z,101551.00
2023-02-12T03:36:58.557Z,101550.94
2023-02-12T03:42:03.886Z,101550.09
2023-02-12T03:47:14.151Z,101550.13
2023-02-12T03:52:18.549Z,101553.63
2023-02-12T03:57:22.237Z,101564.13
2023-02-12T04:02:25.199Z,101558.03
2023-02-12T04:07:29.535Z,101558.16
2023-02-12T04:12:35.728Z,101556.41
2023-02-12T04:17:46.900Z,101548.56
2023-02-12T04:22:55.926Z,101552.06
2023-02-12T04:28:03.292Z,101548.56
2023-02-12T04:33:07.379Z,101556.41
2023-02-12T04:38:15.381Z,101557.38
2023-02-12T04:43:27.664Z,101557.38
2023-02-12T04:48:30.689Z,101556.53
2023-02-12T04:53:35.007Z,101556.56
2023-02-12T04:58:38.342Z,101564.47
2023-02-12T05:03:41.282Z,101569.88
2023-02-12T05:08:45.602Z,101567.25
2023-02-12T05:13:50.290Z,101574.38
2023-02-12T05:18:53.205Z,101571.75
2023-02-12T05:23:57.647Z,101587.56
2023-02-12T05:29:00.636Z,101574.38
2023-02-12T05:34:03.593Z,101582.28
2023-02-12T05:39:08.619Z,101586.59
2023-02-12T05:44:12.746Z,101582.22
2023-02-12T05:49:15.649Z,101571.66
2023-02-12T05:54:20.042Z,101578.69
2023-02-12T05:59:24.192Z,101576.94
2023-02-12T06:04:28.456Z,101562.91
2023-02-12T06:09:33.135Z,101564.63
2023-02-12T06:14:36.247Z,101571.56
2023-02-12T06:19:39.155Z,101564.56
2023-02-12T06:24:43.492Z,101570.69
2023-02-12T06:29:46.600Z,101552.34
2023-02-12T06:34:49.665Z,101569.03
2023-02-12T06:39:54.000Z,101565.50
2023-02-12T06:44:57.001Z,101567.31
2023-02-12T06:49:59.975Z,101568.19
2023-02-12T06:55:04.495Z,101577.91
2023-02-12T07:00:08.091Z,101576.16
2023-02-12T07:05:11.121Z,101574.41
2023-02-12T07:10:15.602Z,101572.78
2023-02-12T07:15:18.696Z,101586.00
2023-02-12T07:20:21.724Z,101589.53
2023-02-12T07:25:26.067Z,101596.56
2023-02-12T07:30:29.063Z,101604.44
2023-02-12T07:35:32.102Z,101607.09
2023-02-12T07:40:36.425Z,101610.63
2023-02-12T07:45:39.462Z,101610.66
2023-02-12T07:50:42.499Z,101630.75
2023-02-12T07:55:46.908Z,101631.66
2023-02-12T08:00:49.846Z,101637.84
2023-02-12T08:05:52.787Z,101638.66
2023-02-12T08:10:58.696Z,101652.56
2023-02-12T08:16:02.106Z,101645.59
2023-02-12T08:21:05.935Z,101658.66
2023-02-12T08:26:11.714Z,101642.88
2023-02-12T08:31:15.705Z,101653.25
2023-02-12T08:36:20.226Z,101654.72
2023-02-12T08:41:25.342Z,101666.78
2023-02-12T08:46:29.511Z,101658.69
2023-02-12T08:51:33.392Z,101656.97
2023-02-12T08:56:37.758Z,101655.94
2023-02-12T09:01:42.330Z,101658.53
2023-02-12T09:06:45.652Z,101654.88
2023-02-12T09:11:50.195Z,101662.38
2023-02-12T09:16:53.732Z,101655.75
2023-02-12T09:21:57.219Z,101666.75
2023-02-12T09:27:01.676Z,101661.72
2023-02-12T09:32:06.853Z,101662.78
2023-02-12T09:37:09.947Z,101666.25
2023-02-12T09:42:22.612Z,101668.06
2023-02-12T09:47:28.517Z,101656.47
2023-02-12T09:52:32.065Z,101660.81
2023-02-12T09:57:37.697Z,101663.22
2023-02-12T10:02:41.633Z,101658.97
2023-02-12T10:07:56.093Z,101657.16
2023-02-12T10:13:05.438Z,101654.59
2023-02-12T10:18:25.960Z,101657.63
2023-02-12T10:23:48.089Z,101646.13
2023-02-12T10:28:53.109Z,101652.81
2023-02-12T10:33:57.363Z,101654.97
2023-02-12T10:39:03.011Z,101654.97
2023-02-12T10:44:08.779Z,101660.09
2023-02-12T10:49:13.371Z,101646.00
2023-02-12T10:54:34.747Z,101653.69
2023-02-12T10:59:39.240Z,101660.34
2023-02-12T11:04:42.268Z,101647.19
2023-02-12T11:09:46.681Z,101651.97
2023-02-12T11:14:52.055Z,101652.81
2023-02-12T11:20:22.700Z,101654.28
2023-02-12T11:25:26.529Z,101652.94
2023-02-12T11:30:31.171Z,101650.19
2023-02-12T11:35:36.284Z,101639.16
2023-02-12T11:40:39.331Z,101636.06
2023-02-12T11:45:46.585Z,101635.59
2023-02-12T11:50:50.271Z,101622.56
2023-02-12T11:55:57.362Z,101622.47
2023-02-12T12:01:07.048Z,101611.78
2023-02-12T12:06:19.602Z,101602.09
2023-02-12T12:11:25.765Z,101592.94
2023-02-12T12:16:50.214Z,101590.09
2023-02-12T12:21:58.827Z,101581.41
2023-02-12T12:27:14.455Z,101568.22
2023-02-12T12:32:19.710Z,101577.56
2023-02-12T12:37:32.601Z,101557.56
2023-02-12T12:42:48.363Z,101562.25
2023-02-12T12:47:59.396Z,101552.19
2023-02-12T12:53:08.552Z,101549.97
2023-02-12T12:58:14.304Z,101544.59
2023-02-12T13:03:32.090Z,101548.44
2023-02-12T13:08:52.642Z,101533.56
2023-02-12T13:14:01.161Z,101525.19
2023-02-12T13:19:08.762Z,101521.97
2023-02-12T13:24:19.418Z,101513.91
2023-02-12T13:29:24.778Z,101502.09
2023-02-12T13:34:28.843Z,101494.38
2023-02-12T13:39:36.107Z,101486.53
2023-02-12T13:44:45.061Z,101481.00
2023-02-12T13:49:51.624Z,101481.25
2023-02-12T13:55:00.271Z,101469.25
2023-02-12T14:00:08.535Z,101459.34
2023-02-12T14:05:22.733Z,101456.31
2023-02-12T14:10:29.342Z,101445.44
2023-02-12T14:15:34.396Z,101445.50
2023-02-12T14:20:38.269Z,101432.88
2023-02-12T14:25:43.387Z,101433.91
2023-02-12T14:30:46.509Z,101435.66
2023-02-12T14:35:51.403Z,101424.72
2023-02-12T14:41:34.227Z,101420.59
2023-02-12T14:46:47.790Z,101424.75
2023-02-12T14:51:55.063Z,101420.72
2023-02-12T14:57:01.859Z,101414.34
2023-02-12T15:02:05.512Z,101415.09
2023-02-12T15:07:10.598Z,101419.22
2023-02-12T15:12:18.575Z,101413.41
2023-02-12T15:17:22.465Z,101406.91
2023-02-12T15:22:26.512Z,101408.91
2023-02-12T15:27:30.927Z,101400.69
2023-02-12T15:32:37.635Z,101409.38
2023-02-12T15:37:41.481Z,101408.34
2023-02-12T15:42:54.170Z,101405.84
2023-02-12T15:48:00.742Z,101406.53
2023-02-12T15:53:04.320Z,101397.00
2023-02-12T15:58:20.135Z,101404.22
2023-02-12T16:03:24.659Z,101404.59
2023-02-12T16:08:27.720Z,101401.69
2023-02-12T16:13:33.632Z,101416.75
2023-02-12T16:18:36.518Z,101411.97
2023-02-12T16:23:39.663Z,101412.16
2023-02-12T16:28:47.472Z,101419.28
2023-02-12T16:33:54.123Z,101421.84
2023-02-12T16:38:57.724Z,101422.06
2023-02-12T16:44:19.018Z,101423.88
2023-02-12T16:49:24.451Z,101431.97
2023-02-12T16:54:28.953Z,101421.72
2023-02-12T16:59:31.823Z,101425.28
2023-02-12T17:04:36.154Z,101431.50
2023-02-12T17:09:39.043Z,101438.81
2023-02-12T17:14:41.955Z,101440.81
2023-02-12T17:19:46.222Z,101445.13
2023-02-12T17:24:51.669Z,101439.13
2023-02-12T17:29:54.553Z,101447.03
2023-02-12T17:34:58.849Z,101457.78
2023-02-12T17:40:02.552Z,101460.53
2023-02-12T17:45:05.504Z,101460.69
2023-02-12T17:50:11.637Z,101466.00
2023-02-12T17:55:15.295Z,101467.72
2023-02-12T18:00:18.805Z,101469.63
2023-02-12T18:05:23.051Z,101465.41
2023-02-12T18:10:26.019Z,101475.16
2023-02-12T18:15:28.851Z,101474.31
2023-02-12T18:20:33.416Z,101476.97
2023-02-12T18:25:36.375Z,101483.16
2023-02-12T18:30:42.913Z,101472.47
2023-02-12T18:35:47.229Z,101474.31
2023-02-12T18:40:50.133Z,101466.34
2023-02-12T18:45:53.017Z,101468.22
2023-02-12T18:51:01.201Z,101474.59
2023-02-12T18:56:05.077Z,101465.84
2023-02-12T19:01:13.537Z,101464.16
2023-02-12T19:06:17.892Z,101469.38
2023-02-12T19:11:20.758Z,101471.25
2023-02-12T19:16:24.703Z,101476.59
2023-02-12T19:21:28.974Z,101484.47
2023-02-12T19:26:32.291Z,101485.25
2023-02-12T19:31:36.411Z,101493.38
2023-02-12T19:36:40.800Z,101494.16
2023-02-12T19:41:43.665Z,101492.47
2023-02-12T19:46:46.954Z,101493.38
2023-02-12T19:51:51.315Z,101493.38
2023-02-12T19:56:55.481Z,101496.94
2023-02-12T20:01:58.328Z,101496.94
2023-02-12T20:07:02.604Z,101495.09
2023-02-12T20:12:05.620Z,101504.88
2023-02-12T20:17:08.475Z,101498.78
2023-02-12T20:22:12.766Z,101502.41
2023-02-12T20:27:15.607Z,101504.31
2023-02-12T20:32:18.496Z,101506.16
2023-02-12T20:37:22.759Z,101508.78
2023-02-12T20:42:25.689Z,101508.88
2023-02-12T20:47:29.595Z,101516.66
2023-02-12T20:52:33.831Z,101518.63
2023-02-12T20:57:36.741Z,101523.91
2023-02-12T21:02:39.743Z,101530.09
2023-02-12T21:07:45.658Z,101530.91
2023-02-12T21:12:48.615Z,101536.13
2023-02-12T21:17:52.742Z,101549.41
2023-02-12T21:22:57.025Z,101546.75
2023-02-12T21:28:00.047Z,101549.34
2023-02-12T21:33:02.998Z,101560.69
2023-02-12T21:38:07.341Z,101561.66
2023-02-12T21:43:10.507Z,101563.41
2023-02-12T21:48:13.443Z,101559.94
2023-02-12T21:53:18.472Z,101564.38
2023-02-12T21:58:21.534Z,101565.13
2023-02-12T22:03:24.466Z,101569.47
2023-02-12T22:08:29.000Z,101562.47
2023-02-12T22:13:32.344Z,101563.41
2023-02-12T22:18:35.309Z,101558.09
2023-02-12T22:23:39.949Z,101562.53
2023-02-12T22:28:44.051Z,101565.00
2023-02-12T22:33:47.220Z,101559.94
2023-02-12T22:38:51.551Z,101556.56
2023-02-12T22:43:54.533Z,101552.25
2023-02-12T22:48:57.414Z,101563.56
2023-02-12T22:54:01.746Z,101560.91
2023-02-12T22:59:04.722Z,101560.13
2023-02-12T23:04:07.780Z,101566.50
2023-02-12T23:09:13.320Z,101565.56
2023-02-12T23:14:16.283Z,101560.34
2023-02-12T23:19:19.258Z,101562.19
2023-02-12T23:24:24.825Z,101549.09
2023-02-12T23:29:27.815Z,101554.56
2023-02-12T23:34:30.800Z,101550.94
2023-02-12T23:39:35.203Z,101552.75
2023-02-12T23:44:38.987Z,101562.59
2023-02-12T23:49:41.952Z,101566.06
2023-02-12T23:54:46.296Z,101557.31
2023-02-12T23:59:49.219Z,101555.41
